createdAt,value
2023-04-15T00:02:03.102Z,100507.09
2023-04-15T00:04:34.031Z,100505.03
2023-04-15T00:07:06.813Z,100511.13
2023-04-15T00:09:36.989Z,100503.59
2023-04-15T00:12:07.170Z,100507.44
2023-04-15T00:14:37.876Z,100500.75
2023-04-15T00:17:08.476Z,100504.53
2023-04-15T00:19:38.561Z,100516.84
2023-04-15T00:22:13.373Z,100503.13
2023-04-15T00:24:43.515Z,100503.41
2023-04-15T00:27:14.048Z,100506.44
2023-04-15T00:29:43.989Z,100501.97
2023-04-15T00:32:13.914Z,100504.81
2023-04-15T00:34:43.780Z,100498.75
2023-04-15T00:37:16.448Z,100503.19
2023-04-15T00:39:46.334Z,100504.63
2023-04-15T00:42:16.762Z,100503.69
2023-04-15T00:44:46.792Z,100500.31
2023-04-15T00:47:18.143Z,100510.34
2023-04-15T00:49:48.316Z,100511.78
2023-04-15T00:52:21.027Z,100508.59
2023-04-15T00:54:51.476Z,100505.72
2023-04-15T00:57:22.455Z,100517.97
2023-04-15T00:59:52.892Z,100519.09
2023-04-15T01:02:23.136Z,100516.50
2023-04-15T01:04:53.871Z,100514.75
2023-04-15T01:07:26.651Z,100515.22
2023-04-15T01:09:57.146Z,100502.59
2023-04-15T01:12:29.691Z,100509.91
2023-04-15T01:15:00.336Z,100512.91
2023-04-15T01:17:30.703Z,100511.47
2023-04-15T01:20:00.913Z,100503.53
2023-04-15T01:22:36.763Z,100508.66
2023-04-15T01:25:12.857Z,100506.41
2023-04-15T01:27:45.648Z,100504.81
2023-04-15T01:30:15.878Z,100502.59
2023-04-15T01:32:46.356Z,100507.22
2023-04-15T01:35:20.241Z,100506.41
2023-04-15T01:37:50.587Z,100508.00
2023-04-15T01:40:20.811Z,100514.22
2023-04-15T01:42:53.420Z,100510.41
2023-04-15T01:45:23.307Z,100512.31
2023-04-15T01:47:53.654Z,100506.91
2023-04-15T01:50:23.711Z,100511.19
2023-04-15T01:52:53.593Z,100509.59
2023-04-15T01:55:23.537Z,100515.66
2023-04-15T01:57:56.482Z,100512.75
2023-04-15T02:00:26.911Z,100506.06
2023-04-15T02:02:56.950Z,100509.91
2023-04-15T02:05:26.868Z,100513.22
2023-04-15T02:07:57.886Z,100507.31
2023-04-15T02:10:27.885Z,100504.72
2023-04-15T02:13:00.433Z,100510.78
2023-04-15T02:15:30.777Z,100513.00
2023-04-15T02:18:02.164Z,100511.41
2023-04-15T02:20:33.324Z,100517.44
2023-04-15T02:23:03.372Z,100513.13
2023-04-15T02:25:33.490Z,100512.66
2023-04-15T02:28:06.704Z,100512.16
2023-04-15T02:30:36.770Z,100518.19
2023-04-15T02:33:07.657Z,100512.31
2023-04-15T02:35:39.518Z,100515.28
2023-04-15T02:38:09.315Z,100524.53
2023-04-15T02:40:39.422Z,100534.56
2023-04-15T02:43:13.717Z,100527.56
2023-04-15T02:45:43.853Z,100541.41
2023-04-15T02:48:13.842Z,100543.63
2023-04-15T02:50:47.022Z,100544.22
2023-04-15T02:53:17.746Z,100545.16
2023-04-15T02:55:47.732Z,100543.06
2023-04-15T02:58:22.285Z,100551.28
2023-04-15T03:00:52.309Z,100551.94
2023-04-15T03:03:22.300Z,100550.94
2023-04-15T03:05:52.261Z,100552.66
2023-04-15T03:08:22.200Z,100558.19
2023-04-15T03:10:52.910Z,100559.31
2023-04-15T03:13:25.685Z,100563.84
2023-04-15T03:15:58.545Z,100560.75
2023-04-15T03:18:29.525Z,100559.28
2023-04-15T03:20:59.693Z,100561.50
2023-04-15T03:23:29.769Z,100565.47
2023-04-15T03:26:00.149Z,100566.28
2023-04-15T03:28:33.044Z,100573.28
2023-04-15T03:31:03.212Z,100570.56
2023-04-15T03:33:33.349Z,100570.56
2023-04-15T03:36:03.265Z,100563.09
2023-04-15T03:38:33.453Z,100568.28
2023-04-15T03:41:03.327Z,100574.00
2023-04-15T03:43:35.812Z,100567.31
2023-04-15T03:46:07.241Z,100578.94
2023-04-15T03:48:37.217Z,100577.34
2023-04-15T03:51:07.372Z,100580.84
2023-04-15T03:53:39.965Z,100584.13
2023-04-15T03:56:10.345Z,100597.97
2023-04-15T03:58:42.717Z,100594.38
2023-04-15T04:01:12.556Z,100603.66
2023-04-15T04:03:42.640Z,100606.66
2023-04-15T04:06:12.852Z,100603.16
2023-04-15T04:08:42.758Z,100604.56
2023-04-15T04:11:12.586Z,100612.34
2023-04-15T04:13:45.030Z,100613.16
2023-04-15T04:16:15.204Z,100604.06
2023-04-15T04:18:45.386Z,100614.66
2023-04-15T04:21:15.333Z,100610.97
2023-04-15T04:23:45.760Z,100613.38
2023-04-15T04:26:15.652Z,100614.25
2023-04-15T04:28:53.077Z,100615.97
2023-04-15T04:31:28.305Z,100614.38
2023-04-15T04:33:58.365Z,100622.19
2023-04-15T04:36:28.419Z,100619.16
2023-04-15T04:38:58.401Z,100616.97
2023-04-15T04:41:28.704Z,100614.78
2023-04-15T04:44:01.444Z,100624.28
2023-04-15T04:46:31.469Z,100638.88
2023-04-15T04:49:03.218Z,100633.78
2023-04-15T04:51:33.902Z,100636.78
2023-04-15T04:54:16.136Z,100633.56
2023-04-15T04:56:46.601Z,100636.00
2023-04-15T04:59:19.596Z,100643.81
2023-04-15T05:01:49.579Z,100640.28
2023-04-15T05:04:19.508Z,100645.41
2023-04-15T05:06:49.413Z,100644.59
2023-04-15T05:09:23.705Z,100652.22
2023-04-15T05:11:53.600Z,100650.00
2023-04-15T05:14:26.277Z,100653.72
2023-04-15T05:16:56.196Z,100654.22
2023-04-15T05:19:26.327Z,100658.03
2023-04-15T05:21:56.246Z,100662.63
2023-04-15T05:24:26.322Z,100659.94
2023-04-15T05:26:56.517Z,100655.00
2023-04-15T05:29:29.023Z,100660.72
2023-04-15T05:31:59.417Z,100670.81
2023-04-15T05:34:29.488Z,100671.13
2023-04-15T05:36:59.322Z,100673.84
2023-04-15T05:39:29.872Z,100682.44
2023-04-15T05:42:00.080Z,100678.63
2023-04-15T05:44:32.561Z,100684.03
2023-04-15T05:47:03.741Z,100692.13
2023-04-15T05:49:33.828Z,100693.25
2023-04-15T05:52:03.821Z,100695.94
2023-04-15T05:54:33.967Z,100701.34
2023-04-15T05:57:04.214Z,100698.16
2023-04-15T05:59:37.223Z,100700.25
2023-04-15T06:02:07.781Z,100709.38
2023-04-15T06:04:38.010Z,100711.69
2023-04-15T06:07:08.153Z,100712.69
2023-04-15T06:09:38.101Z,100718.50
2023-04-15T06:12:12.413Z,100724.34
2023-04-15T06:14:44.942Z,100721.72
2023-04-15T06:17:15.603Z,100729.16
2023-04-15T06:19:45.438Z,100728.16
2023-04-15T06:22:15.499Z,100729.34
2023-04-15T06:24:45.703Z,100732.94
2023-04-15T06:27:15.892Z,100734.53
2023-04-15T06:29:48.404Z,100751.25
2023-04-15T06:32:18.192Z,100755.53
2023-04-15T06:34:48.080Z,100746.75
2023-04-15T06:37:18.682Z,100746.88
2023-04-15T06:39:48.594Z,100747.50
2023-04-15T06:42:18.635Z,100746.28
2023-04-15T06:44:51.454Z,100751.81
2023-04-15T06:47:21.303Z,100751.00
2023-04-15T06:49:51.210Z,100748.06
2023-04-15T06:52:21.373Z,100756.59
2023-04-15T06:54:51.425Z,100756.81
2023-04-15T06:57:21.478Z,100759.47
2023-04-15T06:59:54.804Z,100760.72
2023-04-15T07:02:25.217Z,100764.09
2023-04-15T07:04:55.794Z,100764.75
2023-04-15T07:07:25.835Z,100761.53
2023-04-15T07:09:55.731Z,100765.25
2023-04-15T07:12:26.077Z,100777.25
2023-04-15T07:14:58.537Z,100775.47
2023-04-15T07:17:28.452Z,100784.28
2023-04-15T07:19:58.450Z,100788.25
2023-04-15T07:22:28.495Z,100779.63
2023-04-15T07:24:58.406Z,100785.84
2023-04-15T07:27:28.840Z,100790.28
2023-04-15T07:30:01.297Z,100802.06
2023-04-15T07:32:31.330Z,100792.91
2023-04-15T07:35:02.406Z,100796.00
2023-04-15T07:37:32.453Z,100793.03
2023-04-15T07:40:02.300Z,100793.59
2023-04-15T07:42:32.290Z,100795.50
2023-04-15T07:45:04.942Z,100801.78
2023-04-15T07:47:34.862Z,100808.09
2023-04-15T07:50:05.208Z,100803.63
2023-04-15T07:52:39.377Z,100809.88
2023-04-15T07:55:11.221Z,100816.31
2023-04-15T07:57:41.260Z,100813.91
2023-04-15T08:00:15.345Z,100809.25
2023-04-15T08:02:47.130Z,100812.44
2023-04-15T08:05:17.584Z,100824.00
2023-04-15T08:07:48.165Z,100823.22
2023-04-15T08:10:18.061Z,100828.66
2023-04-15T08:12:49.352Z,100833.78
2023-04-15T08:15:23.818Z,100829.88
2023-04-15T08:17:56.355Z,100837.34
2023-04-15T08:20:26.360Z,100834.09
2023-04-15T08:22:56.248Z,100831.47
2023-04-15T08:25:26.102Z,100832.53
2023-04-15T08:27:58.283Z,100833.16
2023-04-15T08:30:31.351Z,100826.59
2023-04-15T08:33:01.259Z,100822.41
2023-04-15T08:35:31.848Z,100835.97
2023-04-15T08:38:01.689Z,100835.47
2023-04-15T08:40:39.121Z,100842.31
2023-04-15T08:43:12.217Z,100843.19
2023-04-15T08:45:46.544Z,100850.59
2023-04-15T08:48:19.583Z,100845.81
2023-04-15T08:50:50.752Z,100847.41
2023-04-15T08:53:21.881Z,100849.28
2023-04-15T08:55:56.277Z,100861.06
2023-04-15T08:58:27.534Z,100847.41
2023-04-15T09:01:00.693Z,100858.31
2023-04-15T09:03:31.979Z,100853.81
2023-04-15T09:06:02.736Z,100841.75
2023-04-15T09:08:32.569Z,100854.31
2023-04-15T09:11:02.687Z,100857.50
2023-04-15T09:13:32.781Z,100859.66
2023-04-15T09:16:05.572Z,100860.44
2023-04-15T09:18:40.429Z,100870.63
2023-04-15T09:21:11.809Z,100868.69
2023-04-15T09:23:43.938Z,100871.47
2023-04-15T09:26:13.960Z,100878.66
2023-04-15T09:28:46.925Z,100880.38
2023-04-15T09:31:19.458Z,100887.81
2023-04-15T09:33:59.562Z,100881.88
2023-04-15T09:36:30.154Z,100879.59
2023-04-15T09:39:01.291Z,100892.41
2023-04-15T09:41:31.497Z,100895.25
2023-04-15T09:44:01.856Z,100905.50
2023-04-15T09:46:48.084Z,100912.88
2023-04-15T09:49:18.209Z,100904.19
2023-04-15T09:52:01.331Z,100916.19
2023-04-15T09:54:38.941Z,100912.91
2023-04-15T09:57:10.525Z,100916.09
2023-04-15T09:59:42.558Z,100915.31
2023-04-15T10:02:16.783Z,100905.53
2023-04-15T10:04:48.812Z,100910.44
2023-04-15T10:07:23.242Z,100915.78
2023-04-15T10:09:53.554Z,100922.56
2023-04-15T10:12:25.092Z,100926.88
2023-04-15T10:14:59.639Z,100930.44
2023-04-15T10:17:35.733Z,100927.06
2023-04-15T10:20:07.313Z,100937.78
2023-04-15T10:22:39.534Z,100943.50
2023-04-15T10:25:10.764Z,100938.41
2023-04-15T10:27:42.603Z,100939.53
2023-04-15T10:30:13.797Z,100934.28
2023-04-15T10:32:47.681Z,100941.78
2023-04-15T10:35:18.905Z,100944.59
2023-04-15T10:37:48.876Z,100947.16
2023-04-15T10:40:31.980Z,100951.53
2023-04-15T10:43:03.279Z,100953.63
2023-04-15T10:45:36.929Z,100955.53
2023-04-15T10:48:11.740Z,100947.75
2023-04-15T10:50:41.593Z,100954.03
2023-04-15T10:53:13.844Z,100958.56
2023-04-15T10:55:43.840Z,100959.66
2023-04-15T10:58:15.267Z,100963.47
2023-04-15T11:00:55.267Z,100967.13
2023-04-15T11:03:43.349Z,100967.47
2023-04-15T11:06:13.429Z,100964.28
2023-04-15T11:09:02.957Z,100962.00
2023-04-15T11:12:02.827Z,100964.81
2023-04-15T11:14:32.763Z,100970.13
2023-04-15T11:17:02.758Z,100962.81
2023-04-15T11:19:41.997Z,100971.72
2023-04-15T11:22:12.742Z,100969.47
2023-04-15T11:24:50.814Z,100974.94
2023-04-15T11:27:24.903Z,100981.38
2023-04-15T11:29:55.045Z,100980.66
2023-04-15T11:32:25.111Z,100993.06
2023-04-15T11:34:58.602Z,100989.19
2023-04-15T11:37:32.490Z,100990.13
2023-04-15T11:40:02.328Z,100988.19
2023-04-15T11:42:46.478Z,100998.38
2023-04-15T11:45:19.402Z,100999.97
2023-04-15T11:47:49.351Z,100997.34
2023-04-15T11:50:23.981Z,100992.34
2023-04-15T11:52:57.373Z,101013.53
2023-04-15T11:55:27.619Z,101010.09
2023-04-15T11:58:13.602Z,101006.22
2023-04-15T12:00:49.544Z,101010.47
2023-04-15T12:03:26.167Z,101010.94
2023-04-15T12:06:14.367Z,101018.88
2023-04-15T12:09:03.097Z,101017.44
2023-04-15T12:11:38.979Z,101016.09
2023-04-15T12:14:11.523Z,101030.22
2023-04-15T12:16:48.806Z,101023.69
2023-04-15T12:19:22.399Z,101030.69
2023-04-15T12:22:00.802Z,101035.84
2023-04-15T12:24:33.942Z,101041.28
2023-04-15T12:27:06.472Z,101049.25
2023-04-15T12:29:37.557Z,101043.00
2023-04-15T12:32:09.635Z,101049.06
2023-04-15T12:34:41.126Z,101046.75
2023-04-15T12:37:16.318Z,101055.06
2023-04-15T12:39:49.004Z,101054.06
2023-04-15T12:42:19.970Z,101066.78
2023-04-15T12:44:50.023Z,101073.38
2023-04-15T12:47:20.054Z,101077.44
2023-04-15T12:49:49.919Z,101069.88
2023-04-15T12:52:22.378Z,101076.63
2023-04-15T12:54:52.188Z,101082.81
2023-04-15T12:57:21.995Z,101079.50
2023-04-15T12:59:52.004Z,101083.50
2023-04-15T13:02:25.825Z,101082.03
2023-04-15T13:04:56.012Z,101096.97
2023-04-15T13:07:28.586Z,101103.22
2023-04-15T13:09:58.687Z,101099.44
2023-04-15T13:12:28.591Z,101102.38
2023-04-15T13:14:58.409Z,101113.13
2023-04-15T13:17:28.319Z,101122.63
2023-04-15T13:19:58.415Z,101116.66
2023-04-15T13:22:30.891Z,101126.44
2023-04-15T13:25:00.705Z,101121.00
2023-04-15T13:27:30.590Z,101127.06
2023-04-15T13:30:00.562Z,101131.25
2023-04-15T13:32:30.545Z,101150.59
2023-04-15T13:35:00.697Z,101134.13
2023-04-15T13:37:33.863Z,101135.06
2023-04-15T13:40:03.952Z,101143.06
2023-04-15T13:42:33.924Z,101138.72
2023-04-15T13:45:03.740Z,101143.50
2023-04-15T13:47:33.789Z,101146.34
2023-04-15T13:50:03.700Z,101150.72
2023-04-15T13:52:36.420Z,101152.06
2023-04-15T13:55:19.517Z,101160.91
2023-04-15T13:57:54.238Z,101165.94
2023-04-15T14:00:24.329Z,101171.56
2023-04-15T14:02:54.327Z,101163.84
2023-04-15T14:05:24.330Z,101173.63
2023-04-15T14:07:57.161Z,101169.63
2023-04-15T14:10:27.082Z,101179.25
2023-04-15T14:12:57.002Z,101176.69
2023-04-15T14:15:27.194Z,101182.81
2023-04-15T14:17:57.120Z,101179.44
2023-04-15T14:20:27.035Z,101192.16
2023-04-15T14:22:59.484Z,101193.44
2023-04-15T14:25:33.777Z,101192.81
2023-04-15T14:28:04.404Z,101197.47
2023-04-15T14:30:34.629Z,101194.75
2023-04-15T14:33:04.921Z,101198.91
2023-04-15T14:35:34.897Z,101205.31
2023-04-15T14:38:11.626Z,101203.22
2023-04-15T14:40:41.985Z,101210.16
2023-04-15T14:43:13.346Z,101214.34
2023-04-15T14:45:44.646Z,101205.69
2023-04-15T14:48:15.910Z,101211.94
2023-04-15T14:50:46.401Z,101213.56
2023-04-15T14:53:19.168Z,101218.97
2023-04-15T14:55:49.139Z,101227.81
2023-04-15T14:58:19.127Z,101216.44
2023-04-15T15:00:49.168Z,101233.72
2023-04-15T15:03:19.728Z,101228.47
2023-04-15T15:05:50.625Z,101235.16
2023-04-15T15:08:23.312Z,101237.88
2023-04-15T15:10:53.456Z,101233.72
2023-04-15T15:13:23.694Z,101235.50
2023-04-15T15:15:53.596Z,101244.81
2023-04-15T15:18:25.788Z,101237.44
2023-04-15T15:20:55.766Z,101247.66
2023-04-15T15:23:28.656Z,101249.91
2023-04-15T15:25:58.642Z,101253.44
2023-04-15T15:28:28.593Z,101251.66
2023-04-15T15:30:58.502Z,101259.97
2023-04-15T15:33:30.083Z,101258.69
2023-04-15T15:36:01.019Z,101258.38
2023-04-15T15:38:33.852Z,101257.88
2023-04-15T15:41:03.700Z,101269.44
2023-04-15T15:43:33.620Z,101275.03
2023-04-15T15:46:08.000Z,101269.09
2023-04-15T15:48:38.423Z,101275.81
2023-04-15T15:51:08.386Z,101273.84
2023-04-15T15:53:40.996Z,101281.53
2023-04-15T15:56:11.054Z,101274.13
2023-04-15T15:58:40.947Z,101287.59
2023-04-15T16:01:11.069Z,101285.31
2023-04-15T16:03:41.284Z,101288.97
2023-04-15T16:06:11.824Z,101296.91
2023-04-15T16:08:44.363Z,101297.53
2023-04-15T16:11:14.280Z,101297.84
2023-04-15T16:13:44.261Z,101305.38
2023-04-15T16:16:14.389Z,101307.63
2023-04-15T16:18:44.315Z,101305.88
2023-04-15T16:21:14.284Z,101305.75
2023-04-15T16:23:46.871Z,101315.03
2023-04-15T16:26:16.880Z,101314.22
2023-04-15T16:28:47.017Z,101314.22
2023-04-15T16:31:17.356Z,101320.13
2023-04-15T16:33:47.363Z,101323.59
2023-04-15T16:36:17.556Z,101327.44
2023-04-15T16:38:50.037Z,101325.63
2023-04-15T16:41:20.602Z,101318.75
2023-04-15T16:43:50.755Z,101337.31
2023-04-15T16:46:20.681Z,101335.09
2023-04-15T16:48:50.593Z,101332.69
2023-04-15T16:51:20.565Z,101343.25
2023-04-15T16:53:53.048Z,101340.25
2023-04-15T16:56:23.837Z,101343.75
2023-04-15T16:58:53.808Z,101343.75
2023-04-15T17:01:24.593Z,101344.38
2023-04-15T17:03:56.171Z,101352.69
2023-04-15T17:06:26.974Z,101367.19
2023-04-15T17:08:59.461Z,101365.38
2023-04-15T17:11:31.503Z,101365.66
2023-04-15T17:14:01.481Z,101368.47
2023-04-15T17:16:31.482Z,101367.50
2023-04-15T17:19:01.567Z,101371.31
2023-04-15T17:21:32.905Z,101378.97
2023-04-15T17:24:05.492Z,101379.47
2023-04-15T17:26:35.417Z,101374.16
2023-04-15T17:29:05.560Z,101382.44
2023-04-15T17:31:36.095Z,101383.03
2023-04-15T17:34:07.035Z,101388.47
2023-04-15T17:36:39.208Z,101398.81
2023-04-15T17:39:12.203Z,101395.53
2023-04-15T17:41:42.047Z,101402.59
2023-04-15T17:44:12.302Z,101401.47
2023-04-15T17:46:42.641Z,101405.00
2023-04-15T17:49:12.554Z,101404.81
2023-04-15T17:51:42.543Z,101414.78
2023-04-15T17:54:15.209Z,101416.19
2023-04-15T17:56:45.390Z,101417.47
2023-04-15T17:59:17.373Z,101426.16
2023-04-15T18:01:47.551Z,101435.59
2023-04-15T18:04:17.928Z,101441.03
2023-04-15T18:06:48.318Z,101440.22
2023-04-15T18:09:21.366Z,101440.84
2023-04-15T18:11:51.652Z,101441.25
2023-04-15T18:14:33.715Z,101447.06
2023-04-15T18:17:04.969Z,101446.44
2023-04-15T18:19:35.442Z,101441.72
2023-04-15T18:22:05.636Z,101445.03
2023-04-15T18:24:38.514Z,101449.38
2023-04-15T18:27:08.479Z,101450.88
2023-04-15T18:29:39.187Z,101457.94
2023-04-15T18:32:09.177Z,101471.66
2023-04-15T18:34:39.374Z,101462.03
2023-04-15T18:37:09.407Z,101464.44
2023-04-15T18:39:45.168Z,101473.16
2023-04-15T18:42:15.054Z,101478.81
2023-04-15T18:44:44.973Z,101483.63
2023-04-15T18:47:15.146Z,101491.28
2023-04-15T18:49:45.110Z,101491.34
2023-04-15T18:52:15.076Z,101497.47
2023-04-15T18:54:47.900Z,101497.53
2023-04-15T18:57:23.604Z,101496.03
2023-04-15T19:00:01.724Z,101499.44
2023-04-15T19:02:31.818Z,101501.28
2023-04-15T19:05:04.333Z,101503.69
2023-04-15T19:07:35.021Z,101520.00
2023-04-15T19:10:09.495Z,101508.94
2023-04-15T19:12:40.692Z,101516.97
2023-04-15T19:15:11.693Z,101524.31
2023-04-15T19:17:41.631Z,101528.94
2023-04-15T19:20:12.587Z,101526.53
2023-04-15T19:22:43.367Z,101529.53
2023-04-15T19:25:16.910Z,101525.78
2023-04-15T19:27:46.899Z,101529.63
2023-04-15T19:30:17.241Z,101559.16
2023-04-15T19:32:47.306Z,101551.94
2023-04-15T19:35:17.680Z,101557.72
2023-04-15T19:37:47.672Z,101559.09
2023-04-15T19:40:20.570Z,101561.91
2023-04-15T19:42:50.677Z,101553.22
2023-04-15T19:45:20.891Z,101560.28
2023-04-15T19:47:52.013Z,101564.31
2023-04-15T19:50:26.136Z,101559.34
2023-04-15T19:52:56.179Z,101562.91
2023-04-15T19:55:28.744Z,101566.28
2023-04-15T19:57:58.791Z,101576.59
2023-04-15T20:00:28.869Z,101577.66
2023-04-15T20:02:59.754Z,101571.16
2023-04-15T20:05:29.789Z,101576.34
2023-04-15T20:08:00.052Z,101574.38
2023-04-15T20:10:34.070Z,101575.78
2023-04-15T20:13:04.124Z,101589.84
2023-04-15T20:15:34.305Z,101576.59
2023-04-15T20:18:04.297Z,101582.56
2023-04-15T20:20:34.223Z,101580.97
2023-04-15T20:23:04.249Z,101584.41
2023-04-15T20:25:36.977Z,101587.78
2023-04-15T20:28:07.032Z,101589.84
2023-04-15T20:30:37.658Z,101590.66
2023-04-15T20:33:08.354Z,101589.34
2023-04-15T20:35:38.288Z,101589.03
2023-04-15T20:38:08.231Z,101587.44
2023-04-15T20:40:41.860Z,101583.47
2023-04-15T20:43:11.990Z,101591.81
2023-04-15T20:45:42.270Z,101585.78
2023-04-15T20:48:12.234Z,101586.25
2023-04-15T20:50:42.354Z,101595.78
2023-04-15T20:53:12.266Z,101592.53
2023-04-15T20:55:45.377Z,101600.16
2023-04-15T20:58:15.507Z,101593.13
2023-04-15T21:00:45.615Z,101596.34
2023-04-15T21:03:15.688Z,101594.75
2023-04-15T21:05:45.978Z,101592.09
2023-04-15T21:08:15.931Z,101590.47
2023-04-15T21:10:48.506Z,101598.09
2023-04-15T21:13:18.671Z,101585.84
2023-04-15T21:15:53.647Z,101590.47
2023-04-15T21:18:24.343Z,101596.50
2023-04-15T21:20:59.599Z,101602.78
2023-04-15T21:23:30.116Z,101603.59
2023-04-15T21:26:02.665Z,101613.88
2023-04-15T21:28:32.788Z,101615.50
2023-04-15T21:31:03.067Z,101614.91
2023-04-15T21:33:33.326Z,101614.91
2023-04-15T21:36:03.404Z,101621.41
2023-04-15T21:38:33.415Z,101618.66
2023-04-15T21:41:09.809Z,101622.66
2023-04-15T21:43:40.076Z,101625.88
2023-04-15T21:46:22.223Z,101625.69
2023-04-15T21:48:55.633Z,101642.50
2023-04-15T21:51:26.097Z,101636.59
2023-04-15T21:53:56.209Z,101639.00
2023-04-15T21:56:29.274Z,101644.22
2023-04-15T21:59:02.497Z,101634.69
2023-04-15T22:01:32.607Z,101643.31
2023-04-15T22:04:02.859Z,101649.59
2023-04-15T22:06:32.867Z,101650.09
2023-04-15T22:09:02.821Z,101644.88
2023-04-15T22:11:35.403Z,101650.03
2023-04-15T22:14:05.634Z,101649.19
2023-04-15T22:16:35.874Z,101649.00
2023-04-15T22:19:05.916Z,101658.22
2023-04-15T22:21:36.315Z,101662.03
2023-04-15T22:24:31.742Z,101659.59
2023-04-15T22:26:59.643Z,101658.78
2023-04-15T22:29:30.159Z,101657.72
2023-04-15T22:32:03.114Z,101661.00
2023-04-15T22:34:33.244Z,101661.59
2023-04-15T22:37:03.106Z,101662.66
2023-04-15T22:39:32.990Z,101666.72
2023-04-15T22:42:05.616Z,101680.56
2023-04-15T22:44:35.561Z,101677.84
2023-04-15T22:47:05.406Z,101678.38
2023-04-15T22:49:36.425Z,101678.97
2023-04-15T22:52:07.031Z,101678.38
2023-04-15T22:54:37.918Z,101682.19
2023-04-15T22:57:10.508Z,101683.34
2023-04-15T22:59:41.030Z,101684.97
2023-04-15T23:02:11.020Z,101690.38
2023-04-15T23:04:41.114Z,101688.78
2023-04-15T23:07:11.407Z,101684.97
2023-04-15T23:09:41.984Z,101689.03
2023-04-15T23:12:14.780Z,101693.06
2023-04-15T23:14:45.006Z,101694.13
2023-04-15T23:17:14.884Z,101695.16
2023-04-15T23:19:44.817Z,101694.59
2023-04-15T23:22:14.735Z,101695.63
2023-04-15T23:24:44.663Z,101696.72
2023-04-15T23:27:23.604Z,101704.84
2023-04-15T23:29:53.377Z,101700.25
2023-04-15T23:32:23.273Z,101702.09
2023-04-15T23:34:53.278Z,101702.66
2023-04-15T23:37:23.117Z,101698.88
2023-04-15T23:39:55.858Z,101707.19
2023-04-15T23:42:28.649Z,101698.75
2023-04-15T23:44:58.522Z,101701.41
2023-04-15T23:47:28.476Z,101707.63
2023-04-15T23:49:58.413Z,101714.44
2023-04-15T23:52:31.043Z,101711.25
2023-04-15T23:55:01.400Z,101705.31
2023-04-15T23:57:34.306Z,101704.75
